createdAt,value
2019-03-25T00:00:29.608Z,97359.77
2019-03-25T00:03:11.139Z,97353.53
2019-03-25T00:05:36.714Z,97350.63
2019-03-25T00:08:05.587Z,97345.97
2019-03-25T00:10:33.768Z,97342.34
2019-03-25T00:13:03.442Z,97341.62
2019-03-25T00:15:31.078Z,97344.61
2019-03-25T00:18:15.329Z,97344.44
2019-03-25T00:23:27.793Z,97340.55
2019-03-25T00:25:54.981Z,97341.79
2019-03-25T00:28:21.859Z,97332.23
2019-03-25T00:30:48.608Z,97328.27
2019-03-25T00:33:15.223Z,97326.13
2019-03-25T00:35:41.846Z,97329.07
2019-03-25T00:38:08.763Z,97326.48
2019-03-25T00:40:35.392Z,97321.58
2019-03-25T00:43:01.991Z,97313.94
2019-03-25T00:45:28.897Z,97312.27
2019-03-25T00:47:55.733Z,97308.79
2019-03-25T00:50:22.337Z,97307.41
2019-03-25T00:52:50.086Z,97312.26
2019-03-25T00:55:16.786Z,97314.52
2019-03-25T00:57:43.552Z,97307.91
2019-03-25T01:00:10.594Z,97301.97
2019-03-25T01:02:41.777Z,97301.17
2019-03-25T01:05:09.796Z,97300.90
2019-03-25T01:07:48.156Z,97296.47
2019-03-25T01:13:06.420Z,97299.95
2019-03-25T01:15:37.733Z,97294.89
2019-03-25T01:18:16.674Z,97295.65
2019-03-25T01:20:39.072Z,97290.98
2019-03-25T01:23:10.507Z,97290.09
2019-03-25T01:25:41.186Z,97290.60
2019-03-25T01:28:14.520Z,97288.05
2019-03-25T01:30:42.133Z,97291.06
2019-03-25T01:33:20.636Z,97291.44
2019-03-25T01:35:50.875Z,97294.06
2019-03-25T01:38:20.276Z,97295.89
2019-03-25T01:40:48.654Z,97297.31
2019-03-25T01:43:18.073Z,97296.56
2019-03-25T01:45:47.914Z,97293.30
2019-03-25T01:48:17.194Z,97284.38
2019-03-25T01:50:48.620Z,97283.48
2019-03-25T01:56:16.778Z,97289.44
2019-03-25T01:58:48.934Z,97285.23
2019-03-25T02:01:16.931Z,97284.70
2019-03-25T02:03:43.603Z,97283.20
2019-03-25T02:06:10.219Z,97277.88
2019-03-25T02:08:37.085Z,97280.26
2019-03-25T02:11:03.944Z,97284.12
2019-03-25T02:13:30.806Z,97275.50
2019-03-25T02:15:58.128Z,97276.30
2019-03-25T02:18:47.110Z,97273.42
2019-03-25T02:20:57.520Z,97278.52
2019-03-25T02:23:25.394Z,97272.77
2019-03-25T02:25:54.091Z,97273.66
2019-03-25T02:28:23.893Z,97267.80
2019-03-25T02:30:53.993Z,97269.69
2019-03-25T02:33:21.691Z,97270.40
2019-03-25T02:35:49.340Z,97270.27
2019-03-25T02:38:16.480Z,97264.06
2019-03-25T02:43:34.746Z,97255.81
2019-03-25T02:46:02.361Z,97256.52
2019-03-25T02:48:30.069Z,97255.25
2019-03-25T02:50:57.307Z,97258.37
2019-03-25T02:53:27.159Z,97245.87
2019-03-25T02:55:56.065Z,97252.84
2019-03-25T02:58:24.444Z,97251.61
2019-03-25T03:00:53.396Z,97241.14
2019-03-25T03:03:29.313Z,97236.70
2019-03-25T03:05:55.781Z,97234.20
2019-03-25T03:08:23.672Z,97233.20
2019-03-25T03:10:54.857Z,97234.35
2019-03-25T03:13:32.857Z,97239.77
2019-03-25T03:16:04.027Z,97224.81
2019-03-25T03:18:33.776Z,97235.95
2019-03-25T03:21:06.215Z,97224.29
2019-03-25T03:23:38.735Z,97224.96
2019-03-25T03:26:09.457Z,97230.90
2019-03-25T03:28:36.330Z,97231.19
2019-03-25T03:31:04.010Z,97240.06
2019-03-25T03:33:30.614Z,97247.08
2019-03-25T03:35:58.989Z,97244.97
2019-03-25T03:38:30.235Z,97252.19
2019-03-25T03:40:59.744Z,97243.48
2019-03-25T03:43:30.405Z,97249.37
2019-03-25T03:45:58.355Z,97242.60
2019-03-25T03:48:27.963Z,97240.25
2019-03-25T03:51:01.480Z,97245.66
2019-03-25T03:53:34.552Z,97248.91
2019-03-25T03:56:12.972Z,97247.00
2019-03-25T03:58:31.230Z,97241.16
2019-03-25T04:01:00.181Z,97238.35
2019-03-25T04:03:26.739Z,97246.41
2019-03-25T04:05:57.020Z,97246.05
2019-03-25T04:08:24.999Z,97246.21
2019-03-25T04:10:56.805Z,97246.47
2019-03-25T04:13:23.979Z,97232.30
2019-03-25T04:15:50.594Z,97240.19
2019-03-25T04:18:22.415Z,97246.20
2019-03-25T04:20:49.730Z,97249.50
2019-03-25T04:23:16.329Z,97247.66
2019-03-25T04:25:43.244Z,97243.89
2019-03-25T04:28:09.928Z,97245.08
2019-03-25T04:30:36.898Z,97249.08
2019-03-25T04:33:03.825Z,97252.28
2019-03-25T04:35:30.472Z,97250.89
2019-03-25T04:37:57.604Z,97253.12
2019-03-25T04:40:24.451Z,97243.55
2019-03-25T04:42:51.078Z,97253.02
2019-03-25T04:45:17.671Z,97257.31
2019-03-25T04:47:44.260Z,97263.88
2019-03-25T04:50:11.104Z,97257.69
2019-03-25T04:52:38.082Z,97264.69
2019-03-25T04:55:04.998Z,97266.73
2019-03-25T04:57:32.993Z,97263.57
2019-03-25T05:00:00.528Z,97262.23
2019-03-25T05:02:27.434Z,97263.16
2019-03-25T05:04:54.236Z,97273.95
2019-03-25T05:07:21.016Z,97270.17
2019-03-25T05:09:47.647Z,97272.70
2019-03-25T05:12:14.573Z,97268.76
2019-03-25T05:14:41.139Z,97270.05
2019-03-25T05:17:07.765Z,97270.67
2019-03-25T05:19:34.724Z,97287.26
2019-03-25T05:22:01.469Z,97289.55
2019-03-25T05:24:28.040Z,97286.72
2019-03-25T05:26:55.205Z,97282.92
2019-03-25T05:29:21.896Z,97287.52
2019-03-25T05:31:48.539Z,97283.97
2019-03-25T05:34:15.398Z,97282.14
2019-03-25T05:36:42.096Z,97279.41
2019-03-25T05:39:09.028Z,97281.65
2019-03-25T05:41:35.732Z,97280.11
2019-03-25T05:44:02.318Z,97283.77
2019-03-25T05:46:28.973Z,97282.84
2019-03-25T05:48:55.968Z,97278.67
2019-03-25T05:51:22.616Z,97272.85
2019-03-25T05:53:49.249Z,97272.87
2019-03-25T05:56:16.697Z,97274.09
2019-03-25T05:58:43.395Z,97279.16
2019-03-25T06:01:10.315Z,97274.83
2019-03-25T06:03:36.918Z,97280.50
2019-03-25T06:06:03.815Z,97276.42
2019-03-25T06:08:30.535Z,97271.82
2019-03-25T06:10:57.192Z,97276.46
2019-03-25T06:13:23.838Z,97276.09
2019-03-25T06:15:50.498Z,97275.13
2019-03-25T06:18:20.302Z,97273.55
2019-03-25T06:23:31.823Z,97273.61
2019-03-25T06:25:58.485Z,97274.76
2019-03-25T06:28:25.129Z,97271.98
2019-03-25T06:30:51.774Z,97268.15
2019-03-25T06:33:18.532Z,97269.09
2019-03-25T06:35:45.250Z,97265.45
2019-03-25T06:38:13.001Z,97264.92
2019-03-25T06:40:39.879Z,97266.56
2019-03-25T06:43:06.518Z,97262.08
2019-03-25T06:45:33.198Z,97268.10
2019-03-25T06:48:01.306Z,97261.70
2019-03-25T06:50:28.379Z,97259.23
2019-03-25T06:52:55.518Z,97265.77
2019-03-25T06:55:22.108Z,97257.37
2019-03-25T06:57:48.725Z,97255.45
2019-03-25T07:00:15.978Z,97254.67
2019-03-25T07:02:42.895Z,97252.50
2019-03-25T07:05:10.686Z,97246.39
2019-03-25T07:07:37.486Z,97251.48
2019-03-25T07:10:04.088Z,97257.55
2019-03-25T07:12:31.250Z,97251.66
2019-03-25T07:14:58.723Z,97249.95
2019-03-25T07:17:25.470Z,97247.80
2019-03-25T07:19:52.104Z,97258.44
2019-03-25T07:22:18.983Z,97263.34
2019-03-25T07:24:45.649Z,97253.19
2019-03-25T07:27:12.272Z,97261.83
2019-03-25T07:29:39.416Z,97255.27
2019-03-25T07:32:06.221Z,97258.39
2019-03-25T07:34:33.013Z,97253.17
2019-03-25T07:37:00.672Z,97252.45
2019-03-25T07:39:27.482Z,97259.63
2019-03-25T07:41:55.185Z,97249.16
2019-03-25T07:44:21.832Z,97249.93
2019-03-25T07:46:48.565Z,97249.16
2019-03-25T07:49:15.458Z,97243.45
2019-03-25T07:51:42.191Z,97239.16
2019-03-25T07:54:09.094Z,97232.79
2019-03-25T07:56:35.742Z,97232.50
2019-03-25T07:59:02.410Z,97224.83
2019-03-25T08:01:29.391Z,97222.50
2019-03-25T08:03:56.048Z,97222.77
2019-03-25T08:06:23.900Z,97223.55
2019-03-25T08:08:50.520Z,97225.79
2019-03-25T08:11:17.194Z,97225.34
2019-03-25T08:13:44.330Z,97219.09
2019-03-25T08:16:11.326Z,97216.38
2019-03-25T08:18:38.255Z,97218.17
2019-03-25T08:21:24.959Z,97218.55
2019-03-25T08:23:55.545Z,97215.84
2019-03-25T08:26:23.555Z,97213.23
2019-03-25T08:28:54.636Z,97208.46
2019-03-25T08:31:22.356Z,97212.27
2019-03-25T08:33:52.132Z,97210.70
2019-03-25T08:36:20.705Z,97200.15
2019-03-25T08:38:50.101Z,97207.65
2019-03-25T08:41:21.818Z,97204.47
2019-03-25T08:43:50.463Z,97204.17
2019-03-25T08:46:20.996Z,97204.36
2019-03-25T08:48:49.051Z,97202.61
2019-03-25T08:51:16.212Z,97199.31
2019-03-25T08:53:45.826Z,97194.77
2019-03-25T08:56:13.121Z,97198.51
2019-03-25T08:58:44.043Z,97192.94
2019-03-25T09:01:11.740Z,97190.31
2019-03-25T09:03:54.630Z,97190.30
2019-03-25T09:06:33.062Z,97182.50
2019-03-25T09:09:01.744Z,97179.25
2019-03-25T09:11:29.475Z,97171.77
2019-03-25T09:14:03.332Z,97167.91
2019-03-25T09:16:32.097Z,97171.86
2019-03-25T09:18:59.206Z,97160.59
2019-03-25T09:21:32.468Z,97163.77
2019-03-25T09:24:00.714Z,97162.28
2019-03-25T09:26:27.817Z,97152.47
2019-03-25T09:29:00.741Z,97150.87
2019-03-25T09:31:36.730Z,97153.93
2019-03-25T09:33:59.529Z,97151.73
2019-03-25T09:36:27.397Z,97151.73
2019-03-25T09:41:44.046Z,97139.77
2019-03-25T09:44:13.535Z,97134.73
2019-03-25T09:46:41.152Z,97134.94
2019-03-25T09:49:22.813Z,97130.91
2019-03-25T09:51:41.801Z,97123.05
2019-03-25T09:54:12.690Z,97127.12
2019-03-25T09:56:42.800Z,97127.85
2019-03-25T09:59:12.358Z,97118.78
2019-03-25T10:01:39.032Z,97116.67
2019-03-25T10:04:08.615Z,97116.41
2019-03-25T10:06:36.204Z,97108.25
2019-03-25T10:09:07.164Z,97097.20
2019-03-25T10:11:37.427Z,97095.33
2019-03-25T10:14:04.297Z,97096.69
2019-03-25T10:19:21.373Z,97081.48
2019-03-25T10:21:48.468Z,97080.43
2019-03-25T10:24:15.225Z,97075.35
2019-03-25T10:26:42.329Z,97075.70
2019-03-25T10:29:09.198Z,97078.77
2019-03-25T10:31:36.199Z,97076.84
2019-03-25T10:34:03.152Z,97069.23
2019-03-25T10:36:31.698Z,97064.87
2019-03-25T10:38:58.124Z,97063.62
2019-03-25T10:41:25.051Z,97052.91
2019-03-25T10:43:51.836Z,97045.66
2019-03-25T10:46:18.462Z,97038.59
2019-03-25T10:48:45.164Z,97042.19
2019-03-25T10:51:11.801Z,97027.20
2019-03-25T10:53:38.577Z,97032.47
2019-03-25T10:56:05.588Z,97036.43
2019-03-25T10:58:32.519Z,97030.55
2019-03-25T11:00:59.339Z,97027.30
2019-03-25T11:03:26.307Z,97038.84
2019-03-25T11:05:53.119Z,97029.17
2019-03-25T11:08:19.757Z,97022.81
2019-03-25T11:10:47.733Z,97019.66
2019-03-25T11:13:14.330Z,97016.48
2019-03-25T11:15:41.988Z,97022.44
2019-03-25T11:18:09.044Z,97023.08
2019-03-25T11:20:35.660Z,97027.32
2019-03-25T11:23:02.678Z,97035.45
2019-03-25T11:25:29.426Z,97036.83
2019-03-25T11:27:57.637Z,97044.56
2019-03-25T11:30:24.303Z,97050.26
2019-03-25T11:32:51.388Z,97050.48
2019-03-25T11:35:18.357Z,97044.89
2019-03-25T11:37:44.984Z,97044.37
2019-03-25T11:40:12.359Z,97043.31
2019-03-25T11:42:39.044Z,97036.20
2019-03-25T11:45:05.695Z,97021.63
2019-03-25T11:47:32.784Z,97025.12
2019-03-25T11:49:59.404Z,97024.66
2019-03-25T11:52:26.317Z,97014.66
2019-03-25T11:54:52.948Z,96998.19
2019-03-25T11:57:19.827Z,96993.62
2019-03-25T11:59:46.815Z,96996.09
2019-03-25T12:02:17.789Z,96991.80
2019-03-25T12:04:44.059Z,96988.47
2019-03-25T12:07:11.738Z,96990.34
2019-03-25T12:09:38.619Z,96984.80
2019-03-25T12:12:05.283Z,96973.03
2019-03-25T12:14:31.998Z,96969.22
2019-03-25T12:16:59.025Z,96966.33
2019-03-25T12:22:12.930Z,96957.97
2019-03-25T12:27:24.109Z,96945.98
2019-03-25T12:29:50.755Z,96952.28
2019-03-25T12:32:17.639Z,96944.30
2019-03-25T12:34:45.823Z,96944.73
2019-03-25T12:37:13.805Z,96948.40
2019-03-25T12:39:40.843Z,96951.42
2019-03-25T12:42:07.625Z,96948.04
2019-03-25T12:44:34.212Z,96942.26
2019-03-25T12:47:00.956Z,96953.36
2019-03-25T12:49:27.897Z,96967.58
2019-03-25T12:51:54.510Z,96981.53
2019-03-25T12:54:21.143Z,96983.83
2019-03-25T12:56:48.100Z,96976.56
2019-03-25T12:59:14.736Z,96952.67
2019-03-25T13:01:52.106Z,96943.02
2019-03-25T13:04:10.148Z,96950.89
2019-03-25T13:06:37.198Z,96957.34
2019-03-25T13:09:04.133Z,96962.78
2019-03-25T13:11:31.120Z,96958.59
2019-03-25T13:13:57.881Z,96958.95
2019-03-25T13:19:09.780Z,96961.98
2019-03-25T13:21:36.614Z,96970.91
2019-03-25T13:24:03.535Z,96975.23
2019-03-25T13:26:30.166Z,96966.72
2019-03-25T13:29:02.070Z,96963.70
2019-03-25T13:31:25.425Z,96963.16
2019-03-25T13:33:52.302Z,96970.23
2019-03-25T13:36:19.398Z,96968.73
2019-03-25T13:38:46.051Z,96966.16
2019-03-25T13:41:13.747Z,96961.70
2019-03-25T13:43:40.727Z,96958.03
2019-03-25T13:46:07.320Z,96960.14
2019-03-25T13:48:34.230Z,96957.12
2019-03-25T13:51:00.816Z,96966.39
2019-03-25T13:53:27.712Z,96964.80
2019-03-25T13:55:54.392Z,96965.15
2019-03-25T13:58:21.019Z,96969.00
2019-03-25T14:00:47.879Z,96965.09
2019-03-25T14:03:14.730Z,96958.42
2019-03-25T14:05:41.484Z,96971.27
2019-03-25T14:08:08.103Z,96971.86
2019-03-25T14:10:35.057Z,96967.50
2019-03-25T14:13:01.957Z,96965.02
2019-03-25T14:15:28.560Z,96960.36
2019-03-25T14:17:55.230Z,96978.92
2019-03-25T14:20:22.714Z,96968.61
2019-03-25T14:22:49.310Z,96961.24
2019-03-25T14:25:16.184Z,96958.36
2019-03-25T14:27:42.852Z,96946.53
2019-03-25T14:30:14.577Z,96948.62
2019-03-25T14:32:38.174Z,96962.08
2019-03-25T14:35:04.803Z,96966.95
2019-03-25T14:37:34.743Z,96981.50
2019-03-25T14:40:02.641Z,96966.53
2019-03-25T14:42:32.056Z,96981.34
2019-03-25T14:44:59.647Z,96980.70
2019-03-25T14:47:27.182Z,96974.84
2019-03-25T14:49:55.090Z,96973.45
2019-03-25T14:52:22.772Z,96970.45
2019-03-25T14:54:49.657Z,96964.55
2019-03-25T14:57:17.475Z,96967.83
2019-03-25T14:59:45.208Z,96966.84
2019-03-25T15:02:11.914Z,96967.14
2019-03-25T15:04:39.547Z,96984.64
2019-03-25T15:07:07.811Z,96979.36
2019-03-25T15:09:35.721Z,96994.27
2019-03-25T15:12:02.611Z,96999.09
2019-03-25T15:14:30.181Z,96997.19
2019-03-25T15:16:57.500Z,97007.31
2019-03-25T15:19:25.393Z,97002.47
2019-03-25T15:21:53.072Z,96999.59
2019-03-25T15:24:20.072Z,97011.65
2019-03-25T15:26:47.661Z,97005.35
2019-03-25T15:29:15.464Z,97017.46
2019-03-25T15:31:42.935Z,97034.25
2019-03-25T15:34:11.004Z,97025.09
2019-03-25T15:36:37.783Z,97026.41
2019-03-25T15:39:04.482Z,97032.67
2019-03-25T15:41:32.085Z,97025.46
2019-03-25T15:43:59.760Z,97024.07
2019-03-25T15:46:26.560Z,97022.75
2019-03-25T15:48:53.477Z,97024.95
2019-03-25T15:51:21.122Z,97021.94
2019-03-25T15:53:48.064Z,97022.74
2019-03-25T15:56:14.928Z,97020.03
2019-03-25T15:58:43.782Z,97034.22
2019-03-25T16:01:12.555Z,97021.43
2019-03-25T16:03:40.426Z,97022.45
2019-03-25T16:06:08.786Z,97031.36
2019-03-25T16:08:36.067Z,97025.72
2019-03-25T16:11:03.899Z,97022.72
2019-03-25T16:13:30.909Z,97015.91
2019-03-25T16:15:59.277Z,97023.70
2019-03-25T16:18:26.047Z,97027.72
2019-03-25T16:20:53.718Z,97029.08
2019-03-25T16:23:20.667Z,97022.75
2019-03-25T16:25:48.297Z,97024.34
2019-03-25T16:28:15.985Z,97023.03
2019-03-25T16:30:44.953Z,97018.92
2019-03-25T16:33:12.652Z,97034.16
2019-03-25T16:35:41.804Z,97035.96
2019-03-25T16:38:10.121Z,97034.28
2019-03-25T16:40:53.045Z,97034.30
2019-03-25T16:43:21.179Z,97040.00
2019-03-25T16:45:47.887Z,97034.42
2019-03-25T16:51:14.631Z,97036.20
2019-03-25T16:53:41.408Z,97038.55
2019-03-25T16:56:08.276Z,97044.79
2019-03-25T16:58:35.206Z,97051.69
2019-03-25T17:01:09.971Z,97050.67
2019-03-25T17:03:30.707Z,97062.94
2019-03-25T17:05:59.033Z,97059.13
2019-03-25T17:08:26.018Z,97065.14
2019-03-25T17:10:52.594Z,97073.03
2019-03-25T17:13:19.499Z,97081.91
2019-03-25T17:15:46.101Z,97094.25
2019-03-25T17:18:12.719Z,97097.97
2019-03-25T17:20:39.617Z,97106.94
2019-03-25T17:23:06.301Z,97115.75
2019-03-25T17:25:33.138Z,97123.34
2019-03-25T17:28:00.141Z,97124.05
2019-03-25T17:30:27.785Z,97127.48
2019-03-25T17:32:55.835Z,97140.81
2019-03-25T17:35:24.641Z,97131.45
2019-03-25T17:37:51.259Z,97146.49
2019-03-25T17:40:19.069Z,97152.06
2019-03-25T17:42:45.684Z,97152.86
2019-03-25T17:45:12.520Z,97164.77
2019-03-25T17:47:39.455Z,97177.06
2019-03-25T17:50:06.141Z,97180.02
2019-03-25T17:52:32.983Z,97192.05
2019-03-25T17:54:59.658Z,97197.15
2019-03-25T17:57:27.038Z,97208.91
2019-03-25T17:59:54.963Z,97223.62
2019-03-25T18:02:24.833Z,97232.03
2019-03-25T18:04:51.509Z,97238.81
2019-03-25T18:07:19.243Z,97247.63
2019-03-25T18:09:46.243Z,97244.83
2019-03-25T18:12:13.008Z,97258.73
2019-03-25T18:14:41.164Z,97269.28
2019-03-25T18:17:08.809Z,97263.56
2019-03-25T18:19:38.163Z,97279.16
2019-03-25T18:22:04.939Z,97283.16
2019-03-25T18:24:33.610Z,97280.72
2019-03-25T18:27:04.088Z,97281.55
2019-03-25T18:29:37.665Z,97286.71
2019-03-25T18:31:59.219Z,97279.00
2019-03-25T18:34:35.936Z,97291.89
2019-03-25T18:37:05.124Z,97287.63
2019-03-25T18:39:32.013Z,97283.77
2019-03-25T18:42:04.452Z,97291.39
2019-03-25T18:44:34.236Z,97284.91
2019-03-25T18:47:02.930Z,97256.13
2019-03-25T18:49:32.957Z,97279.11
2019-03-25T18:51:59.972Z,97305.56
2019-03-25T18:57:11.004Z,97321.44
2019-03-25T18:59:40.730Z,97328.94
2019-03-25T19:02:17.668Z,97319.24
2019-03-25T19:05:09.152Z,97329.86
2019-03-25T19:10:23.490Z,97343.41
2019-03-25T19:13:14.180Z,97343.56
2019-03-25T19:15:49.052Z,97352.51
2019-03-25T19:18:15.388Z,97367.41
2019-03-25T19:20:42.116Z,97367.31
2019-03-25T19:23:08.749Z,97372.51
2019-03-25T19:25:36.513Z,97388.88
2019-03-25T19:28:03.443Z,97391.14
2019-03-25T19:30:51.607Z,97399.02
2019-03-25T19:33:18.377Z,97405.14
2019-03-25T19:35:45.296Z,97402.39
2019-03-25T19:38:12.021Z,97399.81
2019-03-25T19:40:38.882Z,97399.80
2019-03-25T19:43:05.491Z,97413.70
2019-03-25T19:45:32.472Z,97417.06
2019-03-25T19:47:59.195Z,97422.09
2019-03-25T19:50:25.961Z,97430.17
2019-03-25T19:52:52.603Z,97444.53
2019-03-25T19:55:19.487Z,97454.02
2019-03-25T19:57:46.403Z,97467.91
2019-03-25T20:00:13.033Z,97475.48
2019-03-25T20:02:39.939Z,97477.63
2019-03-25T20:05:06.610Z,97483.75
2019-03-25T20:07:33.371Z,97493.17
2019-03-25T20:10:01.421Z,97500.98
2019-03-25T20:12:28.236Z,97501.47
2019-03-25T20:14:55.003Z,97504.49
2019-03-25T20:17:21.705Z,97510.16
2019-03-25T20:22:34.038Z,97511.05
2019-03-25T20:25:00.929Z,97518.01
2019-03-25T20:30:21.621Z,97519.57
2019-03-25T20:32:50.436Z,97526.14
2019-03-25T20:35:17.317Z,97531.09
2019-03-25T20:37:44.418Z,97533.81
2019-03-25T20:40:11.360Z,97540.59
2019-03-25T20:42:38.009Z,97536.01
2019-03-25T20:45:05.084Z,97541.78
2019-03-25T20:47:31.653Z,97556.89
2019-03-25T20:49:58.528Z,97561.55
2019-03-25T20:52:25.622Z,97562.41
2019-03-25T20:54:52.377Z,97573.91
2019-03-25T20:57:19.043Z,97578.66
2019-03-25T20:59:45.666Z,97593.23
2019-03-25T21:02:12.360Z,97594.69
2019-03-25T21:04:40.270Z,97600.84
2019-03-25T21:07:06.868Z,97607.08
2019-03-25T21:09:33.525Z,97616.73
2019-03-25T21:12:00.509Z,97631.70
2019-03-25T21:14:27.134Z,97629.95
2019-03-25T21:16:54.107Z,97626.76
2019-03-25T21:19:20.654Z,97627.61
2019-03-25T21:21:48.120Z,97628.20
2019-03-25T21:24:14.757Z,97626.12
2019-03-25T21:26:41.530Z,97634.16
2019-03-25T21:29:08.163Z,97634.59
2019-03-25T21:31:34.796Z,97635.91
2019-03-25T21:34:03.059Z,97641.94
2019-03-25T21:36:30.419Z,97649.47
2019-03-25T21:38:57.351Z,97645.14
2019-03-25T21:41:24.259Z,97646.66
2019-03-25T21:43:51.162Z,97641.10
2019-03-25T21:46:18.403Z,97642.58
2019-03-25T21:48:45.566Z,97644.41
2019-03-25T21:51:12.297Z,97646.41
2019-03-25T21:53:38.867Z,97643.77
2019-03-25T21:56:05.649Z,97638.70
2019-03-25T21:58:33.331Z,97651.88
2019-03-25T22:01:00.315Z,97665.05
2019-03-25T22:03:26.860Z,97682.64
2019-03-25T22:05:54.039Z,97684.70
2019-03-25T22:08:20.869Z,97685.82
2019-03-25T22:10:47.738Z,97700.30
2019-03-25T22:13:14.975Z,97708.59
2019-03-25T22:15:41.783Z,97704.25
2019-03-25T22:18:08.475Z,97700.44
2019-03-25T22:20:36.537Z,97693.91
2019-03-25T22:23:03.208Z,97695.77
2019-03-25T22:25:29.792Z,97693.63
2019-03-25T22:27:56.423Z,97692.63
2019-03-25T22:30:25.829Z,97688.29
2019-03-25T22:32:51.465Z,97696.41
2019-03-25T22:35:19.238Z,97690.64
2019-03-25T22:37:46.197Z,97697.94
2019-03-25T22:40:12.802Z,97706.52
2019-03-25T22:42:39.681Z,97711.75
2019-03-25T22:45:06.276Z,97715.80
2019-03-25T22:47:33.242Z,97716.05
2019-03-25T22:49:59.857Z,97711.86
2019-03-25T22:52:26.435Z,97705.77
2019-03-25T22:54:53.370Z,97710.91
2019-03-25T22:57:20.534Z,97717.98
2019-03-25T22:59:47.458Z,97726.69
2019-03-25T23:02:14.253Z,97727.32
2019-03-25T23:04:40.899Z,97730.60
2019-03-25T23:07:07.484Z,97739.66
2019-03-25T23:09:34.819Z,97752.21
2019-03-25T23:12:01.828Z,97749.14
2019-03-25T23:14:28.497Z,97757.03
2019-03-25T23:16:55.452Z,97763.70
2019-03-25T23:19:22.078Z,97769.39
2019-03-25T23:21:48.662Z,97773.39
2019-03-25T23:24:15.255Z,97772.28
2019-03-25T23:26:41.996Z,97779.67
2019-03-25T23:29:08.664Z,97776.39
2019-03-25T23:31:35.604Z,97787.61
2019-03-25T23:34:02.232Z,97785.55
2019-03-25T23:36:29.178Z,97785.42
2019-03-25T23:38:55.846Z,97789.05
2019-03-25T23:41:22.507Z,97790.50
2019-03-25T23:43:49.399Z,97789.84
2019-03-25T23:46:16.024Z,97797.93
2019-03-25T23:48:42.964Z,97802.58
2019-03-25T23:51:10.011Z,97802.36
2019-03-25T23:53:36.659Z,97795.75
2019-03-25T23:56:03.818Z,97796.06
2019-03-25T23:58:30.735Z,97793.57
